sensor_id;sensor_type;location;lat;lon;timestamp;pressure;altitude;pressure_sealevel;temperature;humidity
33075;BME280;19433;51.292;6.868;2022-09-12T00:00:07;100535.28;;;13.16;100.00
33075;BME280;19433;51.292;6.868;2022-09-12T00:02:32;100532.78;;;12.94;100.00
33075;BME280;19433;51.292;6.868;2022-09-12T00:04:57;100543.25;;;12.92;100.00
33075;BME280;19433;51.292;6.868;2022-09-12T00:07:24;100534.06;;;12.85;100.00
33075;BME280;19433;51.292;6.868;2022-09-12T00:09:49;100543.47;;;12.91;100.00
33075;BME280;19433;51.292;6.868;2022-09-12T00:12:14;100533.44;;;12.83;100.00
33075;BME280;19433;51.292;6.868;2022-09-12T00:14:40;100529.81;;;12.89;100.00
33075;BME280;19433;51.292;6.868;2022-09-12T00:17:05;100521.75;;;12.81;100.00
33075;BME280;19433;51.292;6.868;2022-09-12T00:19:32;100514.88;;;12.84;100.00
33075;BME280;19433;51.292;6.868;2022-09-12T00:21:57;100514.72;;;12.79;100.00
33075;BME280;19433;51.292;6.868;2022-09-12T00:24:23;100518.34;;;12.79;100.00
33075;BME280;19433;51.292;6.868;2022-09-12T00:26:48;100519.56;;;12.83;100.00
33075;BME280;19433;51.292;6.868;2022-09-12T00:29:17;100513.16;;;12.96;100.00
33075;BME280;19433;51.292;6.868;2022-09-12T00:31:43;100517.44;;;12.85;100.00
33075;BME280;19433;51.292;6.868;2022-09-12T00:34:08;100514.28;;;12.68;100.00
33075;BME280;19433;51.292;6.868;2022-09-12T00:36:34;100512.00;;;12.52;100.00
33075;BME280;19433;51.292;6.868;2022-09-12T00:39:00;100515.59;;;12.66;100.00
33075;BME280;19433;51.292;6.868;2022-09-12T00:41:37;100503.66;;;12.59;100.00
33075;BME280;19433;51.292;6.868;2022-09-12T00:46:57;100510.09;;;12.46;100.00
33075;BME280;19433;51.292;6.868;2022-09-12T00:49:26;100514.78;;;12.46;100.00
33075;BME280;19433;51.292;6.868;2022-09-12T00:51:56;100506.28;;;12.27;100.00
33075;BME280;19433;51.292;6.868;2022-09-12T00:54:27;100507.38;;;12.20;100.00
33075;BME280;19433;51.292;6.868;2022-09-12T00:56:58;100511.41;;;12.11;100.00
33075;BME280;19433;51.292;6.868;2022-09-12T00:59:30;100491.59;;;12.07;100.00
33075;BME280;19433;51.292;6.868;2022-09-12T01:01:56;100487.53;;;12.10;100.00
33075;BME280;19433;51.292;6.868;2022-09-12T01:04:25;100486.50;;;12.04;100.00
33075;BME280;19433;51.292;6.868;2022-09-12T01:06:52;100485.19;;;12.13;100.00
33075;BME280;19433;51.292;6.868;2022-09-12T01:09:21;100488.59;;;12.15;100.00
33075;BME280;19433;51.292;6.868;2022-09-12T01:11:48;100484.13;;;12.27;100.00
33075;BME280;19433;51.292;6.868;2022-09-12T01:14:16;100482.84;;;12.10;100.00
33075;BME280;19433;51.292;6.868;2022-09-12T01:16:42;100488.81;;;12.20;100.00
33075;BME280;19433;51.292;6.868;2022-09-12T01:25:23;100489.44;;;12.29;100.00
33075;BME280;19433;51.292;6.868;2022-09-12T01:28:16;100491.16;;;12.30;100.00
33075;BME280;19433;51.292;6.868;2022-09-12T01:31:33;100491.56;;;12.27;100.00
33075;BME280;19433;51.292;6.868;2022-09-12T01:34:09;100462.22;;;12.06;100.00
33075;BME280;19433;51.292;6.868;2022-09-12T01:39:39;100482.63;;;12.31;100.00
33075;BME280;19433;51.292;6.868;2022-09-12T01:44:55;100480.91;;;12.24;100.00
33075;BME280;19433;51.292;6.868;2022-09-12T01:47:32;100480.72;;;12.12;100.00
33075;BME280;19433;51.292;6.868;2022-09-12T01:50:05;100478.38;;;12.09;100.00
33075;BME280;19433;51.292;6.868;2022-09-12T01:58:01;100479.22;;;12.10;100.00
33075;BME280;19433;51.292;6.868;2022-09-12T02:00:30;100463.25;;;12.18;100.00
33075;BME280;19433;51.292;6.868;2022-09-12T02:03:08;100463.47;;;12.10;100.00
33075;BME280;19433;51.292;6.868;2022-09-12T02:05:42;100462.44;;;12.05;100.00
33075;BME280;19433;51.292;6.868;2022-09-12T02:08:12;100461.38;;;12.06;100.00
33075;BME280;19433;51.292;6.868;2022-09-12T02:10:48;100447.28;;;12.14;100.00
33075;BME280;19433;51.292;6.868;2022-09-12T02:13:23;100454.09;;;12.18;100.00
33075;BME280;19433;51.292;6.868;2022-09-12T02:16:03;100450.22;;;12.25;100.00
33075;BME280;19433;51.292;6.868;2022-09-12T02:18:30;100448.97;;;12.35;100.00
33075;BME280;19433;51.292;6.868;2022-09-12T02:20:57;100452.75;;;12.40;100.00
33075;BME280;19433;51.292;6.868;2022-09-12T02:23:28;100452.78;;;12.33;100.00
33075;BME280;19433;51.292;6.868;2022-09-12T02:26:03;100448.09;;;12.27;100.00
33075;BME280;19433;51.292;6.868;2022-09-12T02:28:34;100449.38;;;12.31;100.00
33075;BME280;19433;51.292;6.868;2022-09-12T02:38:52;100445.34;;;12.27;100.00
33075;BME280;19433;51.292;6.868;2022-09-12T02:41:19;100449.19;;;12.13;100.00
33075;BME280;19433;51.292;6.868;2022-09-12T02:43:46;100452.81;;;12.07;100.00
33075;BME280;19433;51.292;6.868;2022-09-12T02:46:17;100448.38;;;12.00;100.00
33075;BME280;19433;51.292;6.868;2022-09-12T02:48:45;100443.69;;;12.00;100.00
33075;BME280;19433;51.292;6.868;2022-09-12T02:51:10;100441.72;;;12.07;100.00
33075;BME280;19433;51.292;6.868;2022-09-12T02:53:38;100435.38;;;12.00;100.00
33075;BME280;19433;51.292;6.868;2022-09-12T02:56:07;100433.47;;;11.87;100.00
33075;BME280;19433;51.292;6.868;2022-09-12T02:58:35;100428.38;;;11.91;100.00
33075;BME280;19433;51.292;6.868;2022-09-12T03:07:25;100425.56;;;12.04;100.00
33075;BME280;19433;51.292;6.868;2022-09-12T03:16:04;100431.94;;;12.11;100.00
33075;BME280;19433;51.292;6.868;2022-09-12T03:18:59;100427.88;;;12.07;100.00
33075;BME280;19433;51.292;6.868;2022-09-12T03:21:36;100425.13;;;12.14;100.00
33075;BME280;19433;51.292;6.868;2022-09-12T03:24:19;100424.06;;;12.21;100.00
33075;BME280;19433;51.292;6.868;2022-09-12T03:27:12;100431.31;;;12.16;100.00
33075;BME280;19433;51.292;6.868;2022-09-12T03:29:41;100428.75;;;12.21;100.00
33075;BME280;19433;51.292;6.868;2022-09-12T03:32:07;100426.38;;;12.24;100.00
33075;BME280;19433;51.292;6.868;2022-09-12T03:34:33;100432.34;;;12.35;100.00
33075;BME280;19433;51.292;6.868;2022-09-12T03:36:58;100425.34;;;12.12;100.00
33075;BME280;19433;51.292;6.868;2022-09-12T03:39:24;100428.53;;;12.16;100.00
33075;BME280;19433;51.292;6.868;2022-09-12T03:41:51;100425.94;;;12.27;100.00
33075;BME280;19433;51.292;6.868;2022-09-12T03:44:17;100423.63;;;12.18;100.00
33075;BME280;19433;51.292;6.868;2022-09-12T03:46:42;100427.88;;;12.27;100.00
33075;BME280;19433;51.292;6.868;2022-09-12T03:49:10;100428.97;;;12.19;100.00
33075;BME280;19433;51.292;6.868;2022-09-12T03:51:36;100417.44;;;12.16;100.00
33075;BME280;19433;51.292;6.868;2022-09-12T03:54:02;100429.13;;;12.31;100.00
33075;BME280;19433;51.292;6.868;2022-09-12T03:56:28;100416.59;;;12.15;100.00
33075;BME280;19433;51.292;6.868;2022-09-12T03:58:53;100413.19;;;12.20;100.00
33075;BME280;19433;51.292;6.868;2022-09-12T04:01:19;100427.25;;;12.18;100.00
33075;BME280;19433;51.292;6.868;2022-09-12T04:03:47;100421.28;;;12.21;100.00
33075;BME280;19433;51.292;6.868;2022-09-12T04:06:15;100414.91;;;12.21;100.00
33075;BME280;19433;51.292;6.868;2022-09-12T04:08:42;100416.56;;;12.28;100.00
33075;BME280;19433;51.292;6.868;2022-09-12T04:11:11;100421.66;;;12.38;100.00
33075;BME280;19433;51.292;6.868;2022-09-12T04:13:38;100415.28;;;12.24;100.00
33075;BME280;19433;51.292;6.868;2022-09-12T04:16:05;100411.50;;;12.19;100.00
33075;BME280;19433;51.292;6.868;2022-09-12T04:18:31;100406.19;;;11.97;100.00
33075;BME280;19433;51.292;6.868;2022-09-12T04:20:57;100408.97;;;11.97;100.00
33075;BME280;19433;51.292;6.868;2022-09-12T04:23:22;100410.66;;;11.98;100.00
33075;BME280;19433;51.292;6.868;2022-09-12T04:25:59;100416.38;;;12.10;100.00
33075;BME280;19433;51.292;6.868;2022-09-12T04:28:25;100407.63;;;12.33;100.00
33075;BME280;19433;51.292;6.868;2022-09-12T04:30:51;100406.34;;;12.29;100.00
33075;BME280;19433;51.292;6.868;2022-09-12T04:33:17;100404.66;;;12.21;100.00
33075;BME280;19433;51.292;6.868;2022-09-12T04:35:43;100410.03;;;12.03;100.00
33075;BME280;19433;51.292;6.868;2022-09-12T04:38:09;100404.94;;;11.87;100.00
33075;BME280;19433;51.292;6.868;2022-09-12T04:40:35;100406.22;;;11.91;100.00
33075;BME280;19433;51.292;6.868;2022-09-12T04:43:02;100407.03;;;12.05;100.00
33075;BME280;19433;51.292;6.868;2022-09-12T04:45:27;100402.13;;;11.93;100.00
33075;BME280;19433;51.292;6.868;2022-09-12T04:47:53;100404.72;;;11.82;100.00
33075;BME280;19433;51.292;6.868;2022-09-12T04:50:18;100400.25;;;11.87;100.00
33075;BME280;19433;51.292;6.868;2022-09-12T04:52:51;100388.53;;;11.79;100.00
33075;BME280;19433;51.292;6.868;2022-09-12T04:55:17;100392.59;;;11.76;100.00
33075;BME280;19433;51.292;6.868;2022-09-12T04:57:42;100391.06;;;11.67;100.00
33075;BME280;19433;51.292;6.868;2022-09-12T05:00:08;100391.75;;;11.76;100.00
33075;BME280;19433;51.292;6.868;2022-09-12T05:02:40;100384.06;;;11.84;100.00
33075;BME280;19433;51.292;6.868;2022-09-12T05:05:06;100382.16;;;11.85;100.00
33075;BME280;19433;51.292;6.868;2022-09-12T05:07:31;100380.22;;;11.85;100.00
33075;BME280;19433;51.292;6.868;2022-09-12T05:09:57;100384.06;;;11.91;100.00
33075;BME280;19433;51.292;6.868;2022-09-12T05:12:22;100376.97;;;12.08;100.00
33075;BME280;19433;51.292;6.868;2022-09-12T05:14:48;100381.28;;;12.04;100.00
33075;BME280;19433;51.292;6.868;2022-09-12T05:17:13;100375.28;;;12.20;100.00
33075;BME280;19433;51.292;6.868;2022-09-12T05:19:39;100369.91;;;12.25;100.00
33075;BME280;19433;51.292;6.868;2022-09-12T05:22:04;100383.75;;;12.25;100.00
33075;BME280;19433;51.292;6.868;2022-09-12T05:24:30;100379.00;;;12.46;100.00
33075;BME280;19433;51.292;6.868;2022-09-12T05:26:56;100377.44;;;12.63;100.00
33075;BME280;19433;51.292;6.868;2022-09-12T05:29:22;100386.75;;;12.82;100.00
33075;BME280;19433;51.292;6.868;2022-09-12T05:31:49;100386.97;;;12.80;100.00
33075;BME280;19433;51.292;6.868;2022-09-12T05:34:16;100383.13;;;12.81;100.00
33075;BME280;19433;51.292;6.868;2022-09-12T05:36:42;100383.25;;;12.93;100.00
33075;BME280;19433;51.292;6.868;2022-09-12T05:45:46;100377.59;;;13.13;100.00
33075;BME280;19433;51.292;6.868;2022-09-12T05:48:11;100380.56;;;13.18;100.00
33075;BME280;19433;51.292;6.868;2022-09-12T05:50:37;100376.91;;;13.49;100.00
33075;BME280;19433;51.292;6.868;2022-09-12T05:53:02;100380.16;;;13.70;100.00
33075;BME280;19433;51.292;6.868;2022-09-12T05:55:28;100380.09;;;13.77;100.00
33075;BME280;19433;51.292;6.868;2022-09-12T05:57:54;100386.63;;;13.89;100.00
33075;BME280;19433;51.292;6.868;2022-09-12T06:00:20;100392.53;;;14.18;100.00
33075;BME280;19433;51.292;6.868;2022-09-12T06:02:51;100398.84;;;14.25;100.00
33075;BME280;19433;51.292;6.868;2022-09-12T06:05:17;100408.53;;;14.40;100.00
33075;BME280;19433;51.292;6.868;2022-09-12T06:07:44;100398.09;;;14.54;100.00
33075;BME280;19433;51.292;6.868;2022-09-12T06:10:10;100401.69;;;14.61;100.00
33075;BME280;19433;51.292;6.868;2022-09-12T06:12:35;100408.38;;;14.72;100.00
33075;BME280;19433;51.292;6.868;2022-09-12T06:15:01;100410.38;;;14.83;100.00
33075;BME280;19433;51.292;6.868;2022-09-12T06:17:26;100399.84;;;14.85;100.00
33075;BME280;19433;51.292;6.868;2022-09-12T06:19:51;100415.06;;;15.01;100.00
33075;BME280;19433;51.292;6.868;2022-09-12T06:22:17;100402.94;;;15.25;100.00
33075;BME280;19433;51.292;6.868;2022-09-12T06:24:43;100414.09;;;15.25;100.00
33075;BME280;19433;51.292;6.868;2022-09-12T06:27:08;100405.63;;;15.43;100.00
33075;BME280;19433;51.292;6.868;2022-09-12T06:29:33;100407.88;;;15.53;100.00
33075;BME280;19433;51.292;6.868;2022-09-12T06:31:59;100399.81;;;15.75;98.51
33075;BME280;19433;51.292;6.868;2022-09-12T06:34:24;100407.34;;;15.98;97.90
33075;BME280;19433;51.292;6.868;2022-09-12T06:36:51;100406.75;;;16.19;95.82
33075;BME280;19433;51.292;6.868;2022-09-12T06:39:19;100407.25;;;16.91;92.38
33075;BME280;19433;51.292;6.868;2022-09-12T06:41:45;100417.47;;;17.71;89.20
33075;BME280;19433;51.292;6.868;2022-09-12T06:44:13;100416.03;;;18.74;83.11
33075;BME280;19433;51.292;6.868;2022-09-12T06:46:40;100412.34;;;19.39;78.88
33075;BME280;19433;51.292;6.868;2022-09-12T06:49:05;100408.38;;;19.61;77.12
33075;BME280;19433;51.292;6.868;2022-09-12T06:51:32;100411.84;;;20.06;75.79
33075;BME280;19433;51.292;6.868;2022-09-12T06:53:57;100406.22;;;20.06;74.65
33075;BME280;19433;51.292;6.868;2022-09-12T06:56:25;100412.81;;;19.84;75.24
33075;BME280;19433;51.292;6.868;2022-09-12T06:58:51;100417.16;;;19.70;75.81
33075;BME280;19433;51.292;6.868;2022-09-12T07:01:22;100415.91;;;19.88;76.17
33075;BME280;19433;51.292;6.868;2022-09-12T07:03:50;100425.28;;;20.03;76.10
33075;BME280;19433;51.292;6.868;2022-09-12T07:06:18;100422.84;;;20.12;74.90
33075;BME280;19433;51.292;6.868;2022-09-12T07:08:43;100418.31;;;19.74;77.92
33075;BME280;19433;51.292;6.868;2022-09-12T07:11:16;100424.88;;;19.90;77.14
33075;BME280;19433;51.292;6.868;2022-09-12T07:13:47;100428.09;;;19.72;74.96
33075;BME280;19433;51.292;6.868;2022-09-12T07:16:14;100411.44;;;19.60;76.34
33075;BME280;19433;51.292;6.868;2022-09-12T07:18:39;100425.09;;;19.51;75.82
33075;BME280;19433;51.292;6.868;2022-09-12T07:21:13;100425.69;;;19.10;76.93
33075;BME280;19433;51.292;6.868;2022-09-12T07:23:39;100421.81;;;18.67;79.02
33075;BME280;19433;51.292;6.868;2022-09-12T07:26:07;100423.56;;;18.73;79.10
33075;BME280;19433;51.292;6.868;2022-09-12T07:28:33;100418.81;;;18.74;79.46
33075;BME280;19433;51.292;6.868;2022-09-12T07:31:14;100432.59;;;18.80;81.21
33075;BME280;19433;51.292;6.868;2022-09-12T07:33:40;100435.03;;;19.15;79.37
33075;BME280;19433;51.292;6.868;2022-09-12T07:36:09;100429.75;;;19.19;77.60
33075;BME280;19433;51.292;6.868;2022-09-12T07:38:36;100420.66;;;19.07;78.87
33075;BME280;19433;51.292;6.868;2022-09-12T07:41:12;100419.31;;;19.14;78.48
33075;BME280;19433;51.292;6.868;2022-09-12T07:43:38;100408.50;;;18.57;79.80
33075;BME280;19433;51.292;6.868;2022-09-12T07:46:03;100409.53;;;18.90;80.77
33075;BME280;19433;51.292;6.868;2022-09-12T07:48:29;100399.78;;;18.97;80.61
33075;BME280;19433;51.292;6.868;2022-09-12T07:50:58;100402.84;;;18.96;79.59
33075;BME280;19433;51.292;6.868;2022-09-12T07:53:25;100419.53;;;19.08;79.18
33075;BME280;19433;51.292;6.868;2022-09-12T07:55:54;100415.81;;;19.02;77.69
33075;BME280;19433;51.292;6.868;2022-09-12T07:58:23;100417.25;;;19.05;79.33
33075;BME280;19433;51.292;6.868;2022-09-12T08:00:48;100421.03;;;19.15;77.79
33075;BME280;19433;51.292;6.868;2022-09-12T08:03:14;100418.81;;;19.17;77.79
33075;BME280;19433;51.292;6.868;2022-09-12T08:05:39;100424.66;;;19.38;77.81
33075;BME280;19433;51.292;6.868;2022-09-12T08:08:04;100427.66;;;19.58;77.03
33075;BME280;19433;51.292;6.868;2022-09-12T08:10:30;100428.53;;;19.90;75.54
33075;BME280;19433;51.292;6.868;2022-09-12T08:12:56;100422.72;;;20.34;74.26
33075;BME280;19433;51.292;6.868;2022-09-12T08:15:22;100429.97;;;20.62;73.39
33075;BME280;19433;51.292;6.868;2022-09-12T08:17:47;100425.91;;;20.95;70.80
33075;BME280;19433;51.292;6.868;2022-09-12T08:20:12;100433.50;;;21.92;67.38
33075;BME280;19433;51.292;6.868;2022-09-12T08:22:38;100438.59;;;22.05;65.50
33075;BME280;19433;51.292;6.868;2022-09-12T08:25:05;100449.53;;;22.48;64.26
33075;BME280;19433;51.292;6.868;2022-09-12T08:27:30;100445.00;;;22.72;65.13
33075;BME280;19433;51.292;6.868;2022-09-12T08:29:55;100451.75;;;22.66;63.53
33075;BME280;19433;51.292;6.868;2022-09-12T08:32:21;100449.09;;;23.20;61.52
33075;BME280;19433;51.292;6.868;2022-09-12T08:34:46;100448.75;;;24.54;58.10
33075;BME280;19433;51.292;6.868;2022-09-12T08:37:11;100447.94;;;24.48;56.13
33075;BME280;19433;51.292;6.868;2022-09-12T08:39:36;100448.81;;;25.02;54.66
33075;BME280;19433;51.292;6.868;2022-09-12T08:42:04;100450.75;;;25.49;53.80
33075;BME280;19433;51.292;6.868;2022-09-12T08:44:38;100438.66;;;24.72;54.96
33075;BME280;19433;51.292;6.868;2022-09-12T08:47:26;100440.06;;;24.74;56.59
33075;BME280;19433;51.292;6.868;2022-09-12T08:50:02;100445.66;;;25.27;54.00
33075;BME280;19433;51.292;6.868;2022-09-12T08:52:49;100447.53;;;26.31;51.38
33075;BME280;19433;51.292;6.868;2022-09-12T08:57:48;100439.38;;;25.73;52.23
33075;BME280;19433;51.292;6.868;2022-09-12T09:00:15;100443.94;;;26.57;50.64
33075;BME280;19433;51.292;6.868;2022-09-12T09:08:45;100440.72;;;26.32;52.43
33075;BME280;19433;51.292;6.868;2022-09-12T09:11:32;100436.25;;;25.74;53.24
33075;BME280;19433;51.292;6.868;2022-09-12T09:17:43;100443.38;;;25.90;55.54
33075;BME280;19433;51.292;6.868;2022-09-12T09:20:32;100443.44;;;25.67;51.84
33075;BME280;19433;51.292;6.868;2022-09-12T09:23:06;100451.09;;;26.69;51.49
33075;BME280;19433;51.292;6.868;2022-09-12T09:25:59;100445.97;;;28.69;44.36
33075;BME280;19433;51.292;6.868;2022-09-12T09:28:32;100460.16;;;32.01;38.45
33075;BME280;19433;51.292;6.868;2022-09-12T09:31:01;100458.94;;;34.63;30.92
33075;BME280;19433;51.292;6.868;2022-09-12T09:33:32;100459.31;;;35.52;29.34
33075;BME280;19433;51.292;6.868;2022-09-12T09:36:19;100464.25;;;36.41;27.10
33075;BME280;19433;51.292;6.868;2022-09-12T09:39:15;100456.09;;;37.04;26.02
33075;BME280;19433;51.292;6.868;2022-09-12T09:41:55;100458.19;;;37.53;25.75
33075;BME280;19433;51.292;6.868;2022-09-12T09:44:27;100464.44;;;37.58;25.11
33075;BME280;19433;51.292;6.868;2022-09-12T09:46:54;100456.16;;;37.80;23.54
33075;BME280;19433;51.292;6.868;2022-09-12T09:49:26;100449.84;;;38.57;23.51
33075;BME280;19433;51.292;6.868;2022-09-12T09:51:52;100460.25;;;39.02;22.77
33075;BME280;19433;51.292;6.868;2022-09-12T09:54:38;100452.63;;;38.50;22.91
33075;BME280;19433;51.292;6.868;2022-09-12T10:03:00;100447.34;;;40.67;20.69
33075;BME280;19433;51.292;6.868;2022-09-12T10:05:28;100452.31;;;40.70;21.25
33075;BME280;19433;51.292;6.868;2022-09-12T10:07:53;100443.38;;;41.64;19.17
33075;BME280;19433;51.292;6.868;2022-09-12T10:10:19;100442.69;;;40.34;20.42
33075;BME280;19433;51.292;6.868;2022-09-12T10:12:48;100450.41;;;41.53;20.33
33075;BME280;19433;51.292;6.868;2022-09-12T10:15:22;100447.78;;;42.26;18.88
33075;BME280;19433;51.292;6.868;2022-09-12T10:17:50;100444.63;;;41.38;19.64
33075;BME280;19433;51.292;6.868;2022-09-12T10:20:45;100445.69;;;42.44;18.87
33075;BME280;19433;51.292;6.868;2022-09-12T10:23:28;100437.97;;;41.70;18.66
33075;BME280;19433;51.292;6.868;2022-09-12T10:25:57;100439.63;;;41.46;19.38
33075;BME280;19433;51.292;6.868;2022-09-12T10:31:03;100436.72;;;41.50;19.11
33075;BME280;19433;51.292;6.868;2022-09-12T10:33:36;100430.09;;;41.31;19.39
33075;BME280;19433;51.292;6.868;2022-09-12T10:36:06;100420.16;;;41.61;19.70
33075;BME280;19433;51.292;6.868;2022-09-12T10:38:31;100414.78;;;41.59;19.13
33075;BME280;19433;51.292;6.868;2022-09-12T10:43:35;100408.09;;;41.76;18.83
33075;BME280;19433;51.292;6.868;2022-09-12T10:48:46;100395.22;;;41.99;18.11
33075;BME280;19433;51.292;6.868;2022-09-12T10:53:51;100383.88;;;40.16;19.86
33075;BME280;19433;51.292;6.868;2022-09-12T10:56:19;100387.19;;;40.25;20.08
33075;BME280;19433;51.292;6.868;2022-09-12T11:01:35;100379.41;;;40.40;19.76
33075;BME280;19433;51.292;6.868;2022-09-12T11:12:57;100365.09;;;38.42;21.99
33075;BME280;19433;51.292;6.868;2022-09-12T11:15:57;100358.81;;;38.36;20.82
33075;BME280;19433;51.292;6.868;2022-09-12T11:26:59;100350.59;;;38.39;21.64
33075;BME280;19433;51.292;6.868;2022-09-12T11:29:40;100345.28;;;37.77;21.00
33075;BME280;19433;51.292;6.868;2022-09-12T11:35:02;100347.75;;;38.79;20.08
33075;BME280;19433;51.292;6.868;2022-09-12T11:37:54;100332.84;;;38.36;21.32
33075;BME280;19433;51.292;6.868;2022-09-12T11:40:24;100340.97;;;38.24;20.40
33075;BME280;19433;51.292;6.868;2022-09-12T11:42:58;100336.97;;;39.20;19.57
33075;BME280;19433;51.292;6.868;2022-09-12T11:45:33;100343.44;;;38.25;20.26
33075;BME280;19433;51.292;6.868;2022-09-12T11:48:05;100334.69;;;38.15;20.16
33075;BME280;19433;51.292;6.868;2022-09-12T11:50:32;100318.09;;;37.48;21.31
33075;BME280;19433;51.292;6.868;2022-09-12T11:53:27;100314.03;;;37.00;21.66
33075;BME280;19433;51.292;6.868;2022-09-12T11:58:28;100298.44;;;35.20;23.08
33075;BME280;19433;51.292;6.868;2022-09-12T12:01:27;100315.00;;;35.62;23.14
33075;BME280;19433;51.292;6.868;2022-09-12T12:03:56;100295.81;;;36.05;22.48
33075;BME280;19433;51.292;6.868;2022-09-12T12:06:30;100297.53;;;36.97;21.16
33075;BME280;19433;51.292;6.868;2022-09-12T12:08:57;100301.81;;;36.38;22.17
33075;BME280;19433;51.292;6.868;2022-09-12T12:11:34;100299.09;;;37.17;20.51
33075;BME280;19433;51.292;6.868;2022-09-12T12:14:14;100298.44;;;36.13;21.99
33075;BME280;19433;51.292;6.868;2022-09-12T12:16:41;100307.66;;;36.22;22.09
33075;BME280;19433;51.292;6.868;2022-09-12T12:19:30;100289.50;;;34.43;24.06
33075;BME280;19433;51.292;6.868;2022-09-12T12:24:31;100282.41;;;35.93;24.29
33075;BME280;19433;51.292;6.868;2022-09-12T12:27:21;100295.34;;;35.64;22.49
33075;BME280;19433;51.292;6.868;2022-09-12T12:29:47;100282.97;;;35.25;23.72
33075;BME280;19433;51.292;6.868;2022-09-12T12:34:45;100282.31;;;34.65;24.26
33075;BME280;19433;51.292;6.868;2022-09-12T12:44:59;100257.63;;;34.17;23.89
33075;BME280;19433;51.292;6.868;2022-09-12T12:47:27;100262.84;;;34.58;23.43
33075;BME280;19433;51.292;6.868;2022-09-12T12:49:58;100244.66;;;34.23;24.80
33075;BME280;19433;51.292;6.868;2022-09-12T12:52:28;100239.88;;;34.90;23.95
33075;BME280;19433;51.292;6.868;2022-09-12T12:54:57;100244.44;;;35.45;23.16
33075;BME280;19433;51.292;6.868;2022-09-12T12:57:48;100227.69;;;34.77;23.77
33075;BME280;19433;51.292;6.868;2022-09-12T13:02:51;100224.81;;;34.46;23.57
33075;BME280;19433;51.292;6.868;2022-09-12T13:05:21;100223.47;;;33.68;24.34
33075;BME280;19433;51.292;6.868;2022-09-12T13:08:08;100229.28;;;33.04;25.19
33075;BME280;19433;51.292;6.868;2022-09-12T13:10:35;100222.88;;;32.58;26.05
33075;BME280;19433;51.292;6.868;2022-09-12T13:13:04;100224.81;;;32.54;26.82
33075;BME280;19433;51.292;6.868;2022-09-12T13:18:05;100221.88;;;33.15;25.75
33075;BME280;19433;51.292;6.868;2022-09-12T13:20:35;100216.94;;;33.40;25.50
33075;BME280;19433;51.292;6.868;2022-09-12T13:23:02;100208.91;;;33.45;24.75
33075;BME280;19433;51.292;6.868;2022-09-12T13:25:33;100201.38;;;33.13;26.32
33075;BME280;19433;51.292;6.868;2022-09-12T13:30:35;100202.66;;;33.15;25.41
33075;BME280;19433;51.292;6.868;2022-09-12T13:33:14;100194.00;;;32.02;27.37
33075;BME280;19433;51.292;6.868;2022-09-12T13:44:20;100190.78;;;32.16;25.81
33075;BME280;19433;51.292;6.868;2022-09-12T13:46:47;100181.09;;;31.84;26.17
33075;BME280;19433;51.292;6.868;2022-09-12T13:49:28;100179.16;;;31.01;27.90
33075;BME280;19433;51.292;6.868;2022-09-12T13:52:01;100181.72;;;30.44;29.20
33075;BME280;19433;51.292;6.868;2022-09-12T13:54:28;100169.97;;;30.16;28.93
33075;BME280;19433;51.292;6.868;2022-09-12T13:56:54;100177.72;;;29.52;30.80
33075;BME280;19433;51.292;6.868;2022-09-12T13:59:20;100168.38;;;29.08;31.78
33075;BME280;19433;51.292;6.868;2022-09-12T14:01:46;100163.19;;;28.84;32.29
33075;BME280;19433;51.292;6.868;2022-09-12T14:04:17;100156.00;;;28.87;33.46
33075;BME280;19433;51.292;6.868;2022-09-12T14:07:17;100154.16;;;29.08;32.65
33075;BME280;19433;51.292;6.868;2022-09-12T14:09:45;100157.16;;;29.03;33.45
33075;BME280;19433;51.292;6.868;2022-09-12T14:12:25;100153.69;;;28.23;34.02
33075;BME280;19433;51.292;6.868;2022-09-12T14:14:53;100132.94;;;27.75;35.06
33075;BME280;19433;51.292;6.868;2022-09-12T14:17:32;100143.94;;;28.16;33.62
33075;BME280;19433;51.292;6.868;2022-09-12T14:20:01;100131.91;;;28.10;33.92
33075;BME280;19433;51.292;6.868;2022-09-12T14:22:27;100137.38;;;27.58;35.21
33075;BME280;19433;51.292;6.868;2022-09-12T14:24:54;100126.06;;;27.14;33.58
33075;BME280;19433;51.292;6.868;2022-09-12T14:27:23;100122.97;;;27.02;36.16
33075;BME280;19433;51.292;6.868;2022-09-12T14:30:05;100132.94;;;27.21;32.98
33075;BME280;19433;51.292;6.868;2022-09-12T14:32:34;100124.72;;;27.42;33.85
33075;BME280;19433;51.292;6.868;2022-09-12T14:35:04;100122.69;;;27.34;33.33
33075;BME280;19433;51.292;6.868;2022-09-12T14:37:29;100112.66;;;27.37;32.68
33075;BME280;19433;51.292;6.868;2022-09-12T14:39:55;100109.97;;;27.31;32.63
33075;BME280;19433;51.292;6.868;2022-09-12T14:42:30;100106.50;;;27.12;32.51
33075;BME280;19433;51.292;6.868;2022-09-12T14:45:00;100096.50;;;26.92;32.64
33075;BME280;19433;51.292;6.868;2022-09-12T14:47:27;100101.03;;;26.71;33.51
33075;BME280;19433;51.292;6.868;2022-09-12T14:49:58;100098.50;;;26.70;34.02
33075;BME280;19433;51.292;6.868;2022-09-12T14:52:27;100100.44;;;26.47;33.91
33075;BME280;19433;51.292;6.868;2022-09-12T15:02:41;100091.75;;;26.43;35.02
33075;BME280;19433;51.292;6.868;2022-09-12T15:07:43;100080.03;;;26.22;38.91
33075;BME280;19433;51.292;6.868;2022-09-12T15:10:26;100092.63;;;26.30;37.07
33075;BME280;19433;51.292;6.868;2022-09-12T15:15:30;100079.09;;;26.13;38.18
33075;BME280;19433;51.292;6.868;2022-09-12T15:17:55;100081.13;;;25.85;37.08
33075;BME280;19433;51.292;6.868;2022-09-12T15:20:21;100072.94;;;25.70;39.20
33075;BME280;19433;51.292;6.868;2022-09-12T15:22:48;100083.03;;;25.76;36.74